createdAt,value
2019-01-21T00:02:29.109Z,30.90
2019-01-21T00:04:59.367Z,28.63
2019-01-21T00:07:29.660Z,27.47
2019-01-21T00:09:59.830Z,29.30
2019-01-21T00:12:30.018Z,27.30
2019-01-21T00:15:00.268Z,27.37
2019-01-21T00:17:30.511Z,27.83
2019-01-21T00:20:00.750Z,27.27
2019-01-21T00:22:30.964Z,30.43
2019-01-21T00:25:01.208Z,30.87
2019-01-21T00:27:32.127Z,31.40
2019-01-21T00:30:02.439Z,29.07
2019-01-21T00:32:32.870Z,28.33
2019-01-21T00:35:03.146Z,31.43
2019-01-21T00:37:33.691Z,31.00
2019-01-21T00:40:05.775Z,34.00
2019-01-21T00:42:36.282Z,32.80
2019-01-21T00:45:07.138Z,32.70
2019-01-21T00:47:37.929Z,30.00
2019-01-21T00:50:09.558Z,29.70
2019-01-21T00:52:40.152Z,34.27
2019-01-21T00:55:11.376Z,33.33
2019-01-21T00:57:44.665Z,32.50
2019-01-21T01:00:18.325Z,34.07
2019-01-21T01:02:49.365Z,31.20
2019-01-21T01:05:20.326Z,31.60
2019-01-21T01:07:51.196Z,33.60
2019-01-21T01:10:22.096Z,31.87
2019-01-21T01:12:52.974Z,30.43
2019-01-21T01:15:23.839Z,34.17
2019-01-21T01:17:54.723Z,33.27
2019-01-21T01:20:25.602Z,30.77
2019-01-21T01:22:56.516Z,31.90
2019-01-21T01:25:27.610Z,29.33
2019-01-21T01:27:58.263Z,34.10
2019-01-21T01:30:28.936Z,33.80
2019-01-21T01:32:59.679Z,32.60
2019-01-21T01:35:30.358Z,29.93
2019-01-21T01:38:01.060Z,31.00
2019-01-21T01:40:31.676Z,28.70
2019-01-21T01:43:02.182Z,31.70
2019-01-21T01:45:32.508Z,29.47
2019-01-21T01:48:04.090Z,30.43
2019-01-21T01:50:35.012Z,30.83
2019-01-21T01:53:06.189Z,29.83
2019-01-21T01:55:36.788Z,33.30
2019-01-21T01:58:07.934Z,37.80
2019-01-21T02:00:38.984Z,41.93
2019-01-21T02:03:09.552Z,32.47
2019-01-21T02:05:40.004Z,30.27
2019-01-21T02:08:10.860Z,30.27
2019-01-21T02:10:41.435Z,33.03
2019-01-21T02:13:13.514Z,30.73
2019-01-21T02:15:44.034Z,41.30
2019-01-21T02:18:14.558Z,31.73
2019-01-21T02:20:46.041Z,32.63
2019-01-21T02:23:18.940Z,33.77
2019-01-21T02:26:01.795Z,32.17
2019-01-21T02:29:02.758Z,35.30
2019-01-21T02:32:10.218Z,35.03
2019-01-21T02:35:29.504Z,31.37
2019-01-21T02:38:36.665Z,35.00
2019-01-21T02:41:39.309Z,37.40
2019-01-21T02:44:23.224Z,34.47
2019-01-21T02:47:25.179Z,38.93
2019-01-21T02:50:25.150Z,31.27
2019-01-21T02:53:41.352Z,33.50
2019-01-21T02:56:42.761Z,33.10
2019-01-21T03:00:00.702Z,35.60
2019-01-21T03:03:01.842Z,33.80
2019-01-21T03:06:28.691Z,34.80
2019-01-21T03:10:01.229Z,31.37
2019-01-21T03:13:20.309Z,30.27
2019-01-21T03:16:32.302Z,28.70
2019-01-21T03:19:35.244Z,28.00
2019-01-21T03:22:41.807Z,30.77
2019-01-21T03:26:02.582Z,31.23
2019-01-21T03:29:28.225Z,28.20
2019-01-21T03:32:41.510Z,28.30
2019-01-21T03:35:29.251Z,23.50
2019-01-21T03:38:48.579Z,26.30
2019-01-21T03:41:48.249Z,29.40
2019-01-21T03:44:58.351Z,29.70
2019-01-21T03:47:34.235Z,27.90
2019-01-21T03:50:28.087Z,31.80
2019-01-21T03:53:44.769Z,30.07
2019-01-21T03:56:31.184Z,30.60
2019-01-21T03:59:37.745Z,25.20
2019-01-21T04:03:07.932Z,29.23
2019-01-21T04:06:28.309Z,30.50
2019-01-21T04:09:31.979Z,32.23
2019-01-21T04:12:25.079Z,30.17
2019-01-21T04:15:20.339Z,30.87
2019-01-21T04:18:15.949Z,33.70
2019-01-21T04:21:30.733Z,30.03
2019-01-21T04:24:39.356Z,29.73
2019-01-21T04:27:20.175Z,31.67
2019-01-21T04:30:20.929Z,33.27
2019-01-21T04:33:39.323Z,27.17
2019-01-21T04:36:57.859Z,28.50
2019-01-21T04:40:18.812Z,28.83
2019-01-21T04:43:23.831Z,27.90
2019-01-21T04:46:32.499Z,25.80
2019-01-21T04:49:34.483Z,26.33
2019-01-21T04:52:35.593Z,25.67
2019-01-21T04:55:58.015Z,26.10
2019-01-21T04:59:10.973Z,25.83
2019-01-21T05:02:18.447Z,23.47
2019-01-21T05:05:17.448Z,25.53
2019-01-21T05:08:44.221Z,26.10
2019-01-21T05:11:56.439Z,24.17
2019-01-21T05:14:53.475Z,23.90
2019-01-21T05:17:46.372Z,21.93
2019-01-21T05:20:49.010Z,24.50
2019-01-21T05:23:53.577Z,25.00
2019-01-21T05:26:51.157Z,23.70
2019-01-21T05:30:17.582Z,26.33
2019-01-21T05:33:22.414Z,23.97
2019-01-21T05:36:09.074Z,21.13
2019-01-21T05:39:23.957Z,19.80
2019-01-21T05:42:59.617Z,20.53
2019-01-21T05:46:03.704Z,21.23
2019-01-21T05:49:28.454Z,21.43
2019-01-21T05:52:33.622Z,27.97
2019-01-21T05:55:38.664Z,29.23
2019-01-21T05:59:06.757Z,28.37
2019-01-21T06:02:17.151Z,26.17
2019-01-21T06:05:12.286Z,27.27
2019-01-21T06:08:32.722Z,27.67
2019-01-21T06:11:15.470Z,27.75
2019-01-21T06:14:29.604Z,25.90
2019-01-21T06:17:29.651Z,23.87
2019-01-21T06:20:56.101Z,27.58
2019-01-21T06:23:52.860Z,24.50
2019-01-21T06:27:06.385Z,24.07
2019-01-21T06:30:08.469Z,24.70
2019-01-21T06:33:19.995Z,23.57
2019-01-21T06:36:06.259Z,25.23
2019-01-21T06:39:13.129Z,25.65
2019-01-21T06:42:13.893Z,26.47
2019-01-21T06:45:10.825Z,24.37
2019-01-21T06:48:19.868Z,25.13
2019-01-21T06:51:39.489Z,23.47
2019-01-21T06:54:36.960Z,22.42
2019-01-21T06:57:48.530Z,24.77
2019-01-21T07:00:27.627Z,23.37
2019-01-21T07:03:41.200Z,25.73
2019-01-21T07:07:03.568Z,24.12
2019-01-21T07:10:07.576Z,25.90
2019-01-21T07:13:28.537Z,24.47
2019-01-21T07:16:45.927Z,25.72
2019-01-21T07:19:46.249Z,24.25
2019-01-21T07:22:46.891Z,25.08
2019-01-21T07:26:12.980Z,24.10
2019-01-21T07:29:41.456Z,24.52
2019-01-21T07:32:48.400Z,25.77
2019-01-21T07:36:05.048Z,25.43
2019-01-21T07:39:15.692Z,23.43
2019-01-21T07:42:25.994Z,24.70
2019-01-21T07:45:11.206Z,23.73
2019-01-21T07:48:34.013Z,26.77
2019-01-21T07:51:31.877Z,25.53
2019-01-21T07:54:28.090Z,23.50
2019-01-21T07:57:44.982Z,25.50
2019-01-21T08:00:43.102Z,23.17
2019-01-21T08:04:00.843Z,26.30
2019-01-21T08:06:58.733Z,26.40
2019-01-21T08:10:12.790Z,25.10
2019-01-21T08:13:30.766Z,22.73
2019-01-21T08:16:33.314Z,22.07
2019-01-21T08:19:36.684Z,22.83
2019-01-21T08:22:41.470Z,25.70
2019-01-21T08:26:05.719Z,27.53
2019-01-21T08:29:18.642Z,26.33
2019-01-21T08:32:29.170Z,25.93
2019-01-21T08:35:22.588Z,28.10
2019-01-21T08:38:22.285Z,27.10
2019-01-21T08:41:36.818Z,27.80
2019-01-21T08:44:43.600Z,25.70
2019-01-21T08:47:31.848Z,28.27
2019-01-21T08:50:39.770Z,26.07
2019-01-21T08:53:42.744Z,24.43
2019-01-21T08:56:38.617Z,28.33
2019-01-21T08:59:29.628Z,25.40
2019-01-21T09:02:38.344Z,25.07
2019-01-21T09:05:41.254Z,24.23
2019-01-21T09:09:05.825Z,26.03
2019-01-21T09:12:16.930Z,24.20
2019-01-21T09:15:12.830Z,23.07
2019-01-21T09:18:23.320Z,23.13
2019-01-21T09:21:31.484Z,27.00
2019-01-21T09:24:27.253Z,26.40
2019-01-21T09:27:28.243Z,22.17
2019-01-21T09:30:35.663Z,23.27
2019-01-21T09:33:32.036Z,23.70
2019-01-21T09:36:55.146Z,20.23
2019-01-21T09:40:04.232Z,24.03
2019-01-21T09:43:18.720Z,24.17
2019-01-21T09:46:27.460Z,23.50
2019-01-21T09:48:56.733Z,21.93
2019-01-21T09:51:28.696Z,23.67
2019-01-21T09:54:00.142Z,22.70
2019-01-21T09:56:34.340Z,22.00
2019-01-21T09:59:05.108Z,21.17
2019-01-21T10:01:36.348Z,20.47
2019-01-21T10:04:08.088Z,22.77
2019-01-21T10:06:55.029Z,22.53
2019-01-21T10:10:06.524Z,21.77
2019-01-21T10:13:25.494Z,21.90
2019-01-21T10:16:29.823Z,21.77
2019-01-21T10:19:34.233Z,20.47
2019-01-21T10:22:31.877Z,22.07
2019-01-21T10:25:38.380Z,22.07
2019-01-21T10:28:34.738Z,22.27
2019-01-21T10:31:47.676Z,21.70
2019-01-21T10:34:59.398Z,21.47
2019-01-21T10:37:54.409Z,21.50
2019-01-21T10:40:47.366Z,23.40
2019-01-21T10:43:42.875Z,22.83
2019-01-21T10:46:38.060Z,24.13
2019-01-21T10:49:26.211Z,23.13
2019-01-21T10:52:30.601Z,33.53
2019-01-21T10:55:26.881Z,29.33
2019-01-21T10:58:33.356Z,28.87
2019-01-21T11:01:40.322Z,27.20
2019-01-21T11:04:56.583Z,26.77
2019-01-21T11:08:26.223Z,26.23
2019-01-21T11:11:12.117Z,22.53
2019-01-21T11:14:03.448Z,24.30
2019-01-21T11:17:08.193Z,20.53
2019-01-21T11:20:38.574Z,18.47
2019-01-21T11:23:35.047Z,21.63
2019-01-21T11:26:34.486Z,19.27
2019-01-21T11:29:13.327Z,18.60
2019-01-21T11:32:16.855Z,18.63
2019-01-21T11:35:15.146Z,22.27
2019-01-21T11:38:06.829Z,19.33
2019-01-21T11:40:48.553Z,20.27
2019-01-21T11:43:47.467Z,19.73
2019-01-21T11:47:00.659Z,19.57
2019-01-21T11:50:18.383Z,20.30
2019-01-21T11:53:27.827Z,19.23
2019-01-21T11:56:39.607Z,19.03
2019-01-21T11:59:51.891Z,18.30
2019-01-21T12:02:59.299Z,18.33
2019-01-21T12:05:54.282Z,18.23
2019-01-21T12:08:56.608Z,16.40
2019-01-21T12:12:12.487Z,16.97
2019-01-21T12:14:56.677Z,17.33
2019-01-21T12:18:11.453Z,16.60
2019-01-21T12:21:10.583Z,32.23
2019-01-21T12:23:54.729Z,54.27
2019-01-21T12:26:59.902Z,15.07
2019-01-21T12:30:16.563Z,15.17
2019-01-21T12:33:39.225Z,16.57
2019-01-21T12:36:39.282Z,14.90
2019-01-21T12:39:29.125Z,14.07
2019-01-21T12:42:35.437Z,15.97
2019-01-21T12:45:49.509Z,17.93
2019-01-21T12:48:40.075Z,17.00
2019-01-21T12:51:54.597Z,16.63
2019-01-21T12:54:49.936Z,18.83
2019-01-21T12:58:13.819Z,16.73
2019-01-21T13:01:06.888Z,22.97
2019-01-21T13:03:55.315Z,18.50
2019-01-21T13:07:03.463Z,16.30
2019-01-21T13:10:27.001Z,15.27
2019-01-21T13:13:30.911Z,31.20
2019-01-21T13:16:44.322Z,24.50
2019-01-21T13:19:47.270Z,15.80
2019-01-21T13:23:23.372Z,15.60
2019-01-21T13:26:44.041Z,16.40
2019-01-21T13:29:48.081Z,16.27
2019-01-21T13:32:54.455Z,18.27
2019-01-21T13:35:43.034Z,13.87
2019-01-21T13:39:10.037Z,14.07
2019-01-21T13:42:08.395Z,14.80
2019-01-21T13:45:15.008Z,17.50
2019-01-21T13:48:05.725Z,25.93
2019-01-21T13:51:05.155Z,21.70
2019-01-21T13:53:59.889Z,17.00
2019-01-21T13:56:41.939Z,18.63
2019-01-21T13:59:43.774Z,15.23
2019-01-21T14:02:27.837Z,14.87
2019-01-21T14:05:49.922Z,14.80
2019-01-21T14:08:52.196Z,13.07
2019-01-21T14:12:02.523Z,14.93
2019-01-21T14:15:19.546Z,14.17
2019-01-21T14:18:18.089Z,15.60
2019-01-21T14:21:22.299Z,13.27
2019-01-21T14:24:45.840Z,14.33
2019-01-21T14:27:41.034Z,14.90
2019-01-21T14:30:57.718Z,15.10
2019-01-21T14:34:03.288Z,14.63
2019-01-21T14:37:14.355Z,15.13
2019-01-21T14:39:50.008Z,14.50
2019-01-21T14:42:50.007Z,15.37
2019-01-21T14:46:10.316Z,14.90
2019-01-21T14:48:53.962Z,15.07
2019-01-21T14:51:42.686Z,14.33
2019-01-21T14:54:40.680Z,16.53
2019-01-21T14:57:35.809Z,17.43
2019-01-21T15:00:31.298Z,16.80
2019-01-21T15:03:45.798Z,16.53
2019-01-21T15:07:09.957Z,16.03
2019-01-21T15:10:29.386Z,15.43
2019-01-21T15:13:38.527Z,15.57
2019-01-21T15:16:24.578Z,15.70
2019-01-21T15:19:03.807Z,18.40
2019-01-21T15:22:10.811Z,24.10
2019-01-21T15:25:09.221Z,18.53
2019-01-21T15:28:11.109Z,15.63
2019-01-21T15:31:25.660Z,16.27
2019-01-21T15:34:13.049Z,14.97
2019-01-21T15:37:22.118Z,16.77
2019-01-21T15:40:08.226Z,19.17
2019-01-21T15:42:54.385Z,16.63
2019-01-21T15:45:55.004Z,16.53
2019-01-21T15:49:09.584Z,20.23
2019-01-21T15:52:08.353Z,18.90
2019-01-21T15:55:31.990Z,19.63
2019-01-21T15:58:21.582Z,17.53
2019-01-21T16:01:11.820Z,17.20
2019-01-21T16:04:25.470Z,17.27
2019-01-21T16:07:29.806Z,16.53
2019-01-21T16:10:41.722Z,16.57
2019-01-21T16:13:45.932Z,16.70
2019-01-21T16:17:12.586Z,17.30
2019-01-21T16:19:50.045Z,16.80
2019-01-21T16:23:09.672Z,17.40
2019-01-21T16:26:17.962Z,16.80
2019-01-21T16:29:22.650Z,16.23
2019-01-21T16:32:24.524Z,16.93
2019-01-21T16:35:08.327Z,17.60
2019-01-21T16:38:04.900Z,17.47
2019-01-21T16:41:41.832Z,18.57
2019-01-21T16:44:12.708Z,18.37
2019-01-21T16:46:43.020Z,18.07
2019-01-21T16:49:13.338Z,17.33
2019-01-21T16:51:43.621Z,17.73
2019-01-21T16:54:14.039Z,17.20
2019-01-21T16:56:44.392Z,17.20
2019-01-21T16:59:14.705Z,16.63
2019-01-21T17:01:45.083Z,17.23
2019-01-21T17:04:15.435Z,17.83
2019-01-21T17:06:45.667Z,16.90
2019-01-21T17:09:19.645Z,17.67
2019-01-21T17:11:50.101Z,17.13
2019-01-21T17:14:20.454Z,17.00
2019-01-21T17:16:50.743Z,16.77
2019-01-21T17:19:21.330Z,17.80
2019-01-21T17:21:51.653Z,19.37
2019-01-21T17:24:21.941Z,19.27
2019-01-21T17:26:52.369Z,21.67
2019-01-21T17:29:22.639Z,20.40
2019-01-21T17:31:55.217Z,19.23
2019-01-21T17:34:25.503Z,18.93
2019-01-21T17:36:58.277Z,19.83
2019-01-21T17:39:28.979Z,19.33
2019-01-21T17:41:59.797Z,20.57
2019-01-21T17:44:30.371Z,19.00
2019-01-21T17:47:00.961Z,20.33
2019-01-21T17:49:31.411Z,25.50
2019-01-21T17:52:05.253Z,20.97
2019-01-21T17:54:36.585Z,19.97
2019-01-21T17:57:07.196Z,28.10
2019-01-21T17:59:37.575Z,35.10
2019-01-21T18:02:08.170Z,19.37
2019-01-21T18:04:40.169Z,20.90
2019-01-21T18:07:10.381Z,18.83
2019-01-21T18:09:43.017Z,19.07
2019-01-21T18:12:13.228Z,19.37
2019-01-21T18:14:43.922Z,17.43
2019-01-21T18:17:17.199Z,19.63
2019-01-21T18:19:47.467Z,18.20
2019-01-21T18:22:19.077Z,18.97
2019-01-21T18:24:50.100Z,18.67
2019-01-21T18:27:20.559Z,19.43
2019-01-21T18:29:53.559Z,17.40
2019-01-21T18:32:23.909Z,19.70
2019-01-21T18:34:54.204Z,18.50
2019-01-21T18:37:24.435Z,19.20
2019-01-21T18:39:56.097Z,18.80
2019-01-21T18:42:27.575Z,18.47
2019-01-21T18:44:57.769Z,19.87
2019-01-21T18:47:28.107Z,21.43
2019-01-21T18:49:59.969Z,20.37
2019-01-21T18:52:33.241Z,22.57
2019-01-21T18:55:04.709Z,22.83
2019-01-21T18:57:34.987Z,23.87
2019-01-21T19:00:10.214Z,25.90
2019-01-21T19:02:40.725Z,22.97
2019-01-21T19:05:12.255Z,20.93
2019-01-21T19:07:42.552Z,20.27
2019-01-21T19:10:14.763Z,19.03
2019-01-21T19:12:45.157Z,20.30
2019-01-21T19:15:24.565Z,18.50
2019-01-21T19:17:58.403Z,19.77
2019-01-21T19:20:28.695Z,19.13
2019-01-21T19:22:58.969Z,20.00
2019-01-21T19:25:29.348Z,19.10
2019-01-21T19:27:59.787Z,19.60
2019-01-21T19:30:30.202Z,21.13
2019-01-21T19:33:00.990Z,19.37
2019-01-21T19:35:34.087Z,19.60
2019-01-21T19:38:04.469Z,18.37
2019-01-21T19:40:34.840Z,18.40
2019-01-21T19:43:05.381Z,19.33
2019-01-21T19:45:35.885Z,19.23
2019-01-21T19:48:06.435Z,18.93
2019-01-21T19:50:39.275Z,18.70
2019-01-21T19:53:09.617Z,17.63
2019-01-21T19:55:42.368Z,17.80
2019-01-21T19:58:16.812Z,18.87
2019-01-21T20:00:47.938Z,21.73
2019-01-21T20:03:19.005Z,19.60
2019-01-21T20:05:49.327Z,19.73
2019-01-21T20:08:20.210Z,20.87
2019-01-21T20:10:50.736Z,19.43
2019-01-21T20:13:24.705Z,21.13
2019-01-21T20:15:54.987Z,19.43
2019-01-21T20:18:25.338Z,19.90
2019-01-21T20:20:55.878Z,19.17
2019-01-21T20:23:29.039Z,19.27
2019-01-21T20:25:59.392Z,19.20
2019-01-21T20:28:29.814Z,20.70
2019-01-21T20:31:00.273Z,20.07
2019-01-21T20:33:30.576Z,18.27
2019-01-21T20:36:00.815Z,20.43
2019-01-21T20:38:31.029Z,19.33
2019-01-21T20:41:01.275Z,19.03
2019-01-21T20:43:31.542Z,19.47
2019-01-21T20:46:02.057Z,18.53
2019-01-21T20:48:32.364Z,18.87
2019-01-21T20:51:02.889Z,18.07
2019-01-21T20:53:36.008Z,20.37
2019-01-21T20:56:06.337Z,17.77
2019-01-21T20:58:36.616Z,17.23
2019-01-21T21:01:06.901Z,19.27
2019-01-21T21:03:37.428Z,18.27
2019-01-21T21:06:10.764Z,18.17
2019-01-21T21:08:41.181Z,19.40
2019-01-21T21:11:11.772Z,18.77
2019-01-21T21:13:42.272Z,17.80
2019-01-21T21:16:12.785Z,19.13
2019-01-21T21:18:43.265Z,17.87
2019-01-21T21:21:13.543Z,18.10
2019-01-21T21:23:43.878Z,19.20
2019-01-21T21:26:14.243Z,17.83
2019-01-21T21:28:44.643Z,18.43
2019-01-21T21:31:14.992Z,18.87
2019-01-21T21:33:45.392Z,18.20
2019-01-21T21:36:15.783Z,18.37
2019-01-21T21:38:46.848Z,17.60
2019-01-21T21:41:17.167Z,18.23
2019-01-21T21:43:47.636Z,17.57
2019-01-21T21:46:17.939Z,18.73
2019-01-21T21:48:48.598Z,18.57
2019-01-21T21:51:19.493Z,19.07
2019-01-21T21:53:49.895Z,17.73
2019-01-21T21:56:20.226Z,19.53
2019-01-21T21:58:50.638Z,16.77
2019-01-21T22:01:23.995Z,18.70
2019-01-21T22:03:52.914Z,17.87
2019-01-21T22:06:23.260Z,18.43
2019-01-21T22:08:54.015Z,18.70
2019-01-21T22:11:24.360Z,19.60
2019-01-21T22:13:54.719Z,17.83
2019-01-21T22:16:25.076Z,18.17
2019-01-21T22:18:55.420Z,18.10
2019-01-21T22:21:25.862Z,19.30
2019-01-21T22:23:56.400Z,17.70
2019-01-21T22:26:27.130Z,19.30
2019-01-21T22:28:57.472Z,19.47
2019-01-21T22:31:27.991Z,18.47
2019-01-21T22:33:58.466Z,19.00
2019-01-21T22:36:28.786Z,18.13
2019-01-21T22:38:59.245Z,17.80
2019-01-21T22:41:29.742Z,19.73
2019-01-21T22:44:00.060Z,19.23
2019-01-21T22:46:30.446Z,20.10
2019-01-21T22:49:00.956Z,20.83
2019-01-21T22:51:31.235Z,20.23
2019-01-21T22:54:01.454Z,19.50
2019-01-21T22:56:31.789Z,18.87
2019-01-21T22:59:02.102Z,18.70
2019-01-21T23:01:34.283Z,18.80
2019-01-21T23:04:04.876Z,19.30
2019-01-21T23:06:35.258Z,18.70
2019-01-21T23:09:08.866Z,19.00
2019-01-21T23:11:40.417Z,17.57
2019-01-21T23:14:10.934Z,18.63
2019-01-21T23:16:41.234Z,19.23
2019-01-21T23:19:11.521Z,19.10
2019-01-21T23:21:43.235Z,18.67
2019-01-21T23:24:13.413Z,19.67
2019-01-21T23:26:43.676Z,18.17
2019-01-21T23:29:13.887Z,19.03
2019-01-21T23:31:44.402Z,18.37
2019-01-21T23:34:14.583Z,19.30
2019-01-21T23:36:45.164Z,16.93
2019-01-21T23:39:15.438Z,17.13
2019-01-21T23:41:45.965Z,18.77
2019-01-21T23:44:16.234Z,18.97
2019-01-21T23:46:46.459Z,18.80
2019-01-21T23:49:17.339Z,18.80
2019-01-21T23:51:47.616Z,18.70
2019-01-21T23:54:17.990Z,20.67
2019-01-21T23:56:48.276Z,19.73
2019-01-21T23:59:19.125Z,20.07
